createdAt,value
2019-05-12T15:06:29.673Z,44.10
2019-05-12T15:09:11.473Z,45.20
2019-05-12T15:11:52.009Z,45.00
2019-05-12T15:14:38.184Z,46.70
2019-05-12T15:17:22.524Z,49.90
2019-05-12T15:20:00.251Z,51.10
2019-05-12T15:22:42.943Z,51.70
2019-05-12T15:25:18.140Z,51.10
2019-05-12T15:27:55.267Z,48.50
2019-05-12T15:30:33.779Z,45.30
2019-05-12T15:33:14.127Z,45.70
2019-05-12T15:35:55.879Z,48.80
2019-05-12T15:38:43.693Z,51.10
2019-05-12T15:41:28.039Z,52.50
2019-05-12T15:44:09.222Z,54.70
2019-05-12T15:49:54.638Z,51.40
2019-05-12T15:52:38.322Z,46.00
2019-05-12T15:55:13.665Z,46.50
2019-05-12T15:57:53.736Z,50.10
2019-05-12T16:00:34.407Z,53.80
2019-05-12T16:03:12.148Z,55.50
2019-05-12T16:06:01.274Z,55.10
2019-05-12T16:08:34.748Z,54.50
2019-05-12T16:11:07.808Z,56.60
2019-05-12T16:13:54.792Z,56.10
2019-05-12T16:16:36.394Z,52.30
2019-05-12T16:19:15.795Z,48.60
2019-05-12T16:21:59.194Z,47.40
2019-05-12T16:24:34.196Z,50.70
2019-05-12T16:27:33.147Z,54.40
2019-05-12T16:30:13.923Z,54.90
2019-05-12T16:32:54.841Z,54.90
2019-05-12T16:35:47.823Z,54.10
2019-05-12T16:38:35.589Z,55.90
2019-05-12T16:41:19.985Z,56.30
2019-05-12T16:44:07.573Z,54.50
2019-05-12T16:46:44.555Z,54.90
2019-05-12T16:49:33.146Z,54.80
2019-05-12T16:52:06.136Z,56.10
2019-05-12T16:54:39.924Z,56.70
2019-05-12T16:57:19.603Z,57.60
2019-05-12T17:00:03.567Z,58.20
2019-05-12T17:02:41.934Z,59.70
2019-05-12T17:05:24.612Z,60.00
2019-05-12T17:08:04.212Z,61.60
2019-05-12T17:10:56.769Z,62.00
2019-05-12T17:13:36.886Z,62.90
2019-05-12T17:16:15.796Z,63.20
2019-05-12T17:19:00.081Z,62.40
2019-05-12T17:21:37.021Z,60.30
2019-05-12T17:24:14.438Z,60.30
2019-05-12T17:26:58.900Z,61.00
2019-05-12T17:29:37.258Z,60.40
2019-05-12T17:32:18.306Z,61.90
2019-05-12T17:34:55.178Z,61.50
2019-05-12T17:37:41.289Z,62.10
2019-05-12T17:40:24.281Z,62.00
2019-05-12T17:43:11.632Z,62.30
2019-05-12T17:45:50.509Z,62.00
2019-05-12T17:48:26.433Z,61.50
2019-05-12T17:51:08.923Z,61.80
2019-05-12T17:58:04.456Z,63.40
2019-05-12T18:00:47.575Z,64.00
2019-05-12T18:03:25.769Z,63.50
2019-05-12T18:06:35.242Z,62.80
2019-05-12T18:09:20.156Z,62.20
2019-05-12T18:12:04.239Z,61.30
2019-05-12T18:14:50.325Z,62.70
2019-05-12T18:17:24.065Z,62.10
2019-05-12T18:20:04.149Z,63.50
2019-05-12T18:22:45.085Z,62.90
2019-05-12T18:28:21.630Z,63.10
2019-05-12T18:31:04.305Z,63.80
2019-05-12T18:33:57.010Z,63.20
2019-05-12T18:36:43.306Z,63.70
2019-05-12T18:39:24.127Z,63.40
2019-05-12T18:42:00.721Z,62.70
2019-05-12T18:44:35.770Z,64.00
2019-05-12T18:47:23.412Z,63.90
2019-05-12T18:50:00.694Z,64.80
2019-05-12T18:52:46.174Z,66.70
2019-05-12T18:55:29.348Z,68.20
2019-05-12T18:58:21.873Z,68.80
2019-05-12T19:01:07.613Z,69.10
2019-05-12T19:03:54.604Z,68.90
2019-05-12T19:06:34.706Z,70.40
2019-05-12T19:09:16.145Z,70.90
2019-05-12T19:11:56.809Z,71.20
2019-05-12T19:14:36.873Z,72.30
2019-05-12T19:17:15.234Z,72.50
2019-05-12T19:20:00.084Z,73.30
2019-05-12T19:22:39.509Z,73.20
2019-05-12T19:25:20.281Z,73.30
2019-05-12T19:28:06.985Z,73.20
2019-05-12T19:30:46.586Z,74.80
2019-05-12T19:33:52.994Z,76.20
2019-05-12T19:36:24.027Z,78.50
2019-05-12T19:39:03.510Z,80.80
2019-05-12T19:41:48.977Z,84.50
2019-05-12T19:44:31.079Z,86.00
2019-05-12T19:47:09.159Z,85.60
2019-05-12T19:49:50.727Z,83.60
2019-05-12T19:55:27.719Z,90.90
2019-05-12T19:58:13.528Z,91.20
2019-05-12T20:00:56.782Z,92.00
2019-05-12T20:03:33.518Z,92.40
2019-05-12T20:06:28.235Z,93.10
2019-05-12T20:09:11.029Z,93.20
2019-05-12T20:11:48.934Z,93.40
2019-05-12T20:14:34.450Z,93.40
2019-05-12T20:17:27.297Z,92.80
2019-05-12T20:20:07.937Z,91.00
2019-05-12T20:32:34.738Z,90.90
2019-05-12T20:35:17.741Z,91.00
2019-05-12T20:38:07.014Z,91.60
2019-05-12T20:40:48.806Z,90.90
2019-05-12T20:43:32.165Z,91.70
2019-05-12T20:46:15.471Z,92.00
2019-05-12T20:49:01.064Z,93.70
2019-05-12T20:51:39.045Z,93.20
2019-05-12T20:54:25.416Z,93.50
2019-05-12T20:57:07.977Z,93.40
2019-05-12T20:59:46.465Z,91.90
2019-05-12T21:02:25.696Z,92.30
2019-05-12T21:05:16.619Z,91.70
2019-05-12T21:07:55.914Z,91.20
2019-05-12T21:10:34.279Z,90.60
2019-05-12T21:13:20.383Z,90.50
2019-05-12T21:25:23.334Z,90.10
2019-05-12T21:28:02.512Z,90.20
2019-05-12T21:30:55.869Z,89.60
2019-05-12T21:33:41.619Z,90.00
2019-05-12T21:36:24.734Z,90.00
2019-05-12T21:39:08.432Z,90.50
2019-05-12T21:41:50.410Z,90.70
2019-05-12T21:44:41.249Z,90.30
2019-05-12T21:47:17.520Z,90.90
2019-05-12T21:53:50.556Z,91.10
2019-05-12T22:05:51.042Z,92.90
2019-05-12T22:11:00.792Z,94.50
2019-05-12T22:13:46.896Z,94.90
2019-05-12T22:16:15.856Z,96.40
2019-05-12T22:19:00.197Z,97.80
2019-05-12T22:21:35.764Z,97.70
2019-05-12T22:24:38.677Z,98.20
2019-05-12T22:27:30.514Z,97.90
2019-05-12T22:33:20.027Z,99.20
2019-05-12T22:36:14.040Z,99.90
2019-05-12T22:39:02.249Z,99.90
2019-05-12T22:41:41.681Z,99.90
2019-05-12T22:44:20.913Z,98.10
2019-05-12T22:47:12.736Z,96.50
2019-05-12T22:50:33.238Z,96.00
2019-05-12T22:53:13.357Z,95.20
2019-05-12T22:55:53.457Z,94.40
2019-05-12T22:58:59.095Z,94.00
2019-05-12T23:01:49.710Z,94.00
2019-05-12T23:04:44.744Z,93.90
2019-05-12T23:07:28.409Z,93.80
2019-05-12T23:10:41.568Z,94.20
2019-05-12T23:13:16.719Z,93.60
2019-05-12T23:16:06.770Z,93.60
2019-05-12T23:18:44.279Z,93.60
2019-05-12T23:21:19.186Z,93.40
2019-05-12T23:24:00.102Z,93.30
2019-05-12T23:26:35.503Z,93.50
2019-05-12T23:29:31.036Z,93.50
2019-05-12T23:32:12.050Z,93.70
2019-05-12T23:34:52.578Z,94.00
2019-05-12T23:40:16.615Z,94.40
2019-05-12T23:42:58.764Z,94.30
2019-05-12T23:45:34.030Z,94.80
2019-05-12T23:48:07.179Z,95.20
2019-05-12T23:50:43.848Z,95.40
2019-05-12T23:53:16.347Z,95.20
2019-05-12T23:55:50.115Z,95.50
2019-05-12T23:58:30.315Z,96.10
